Paranapanema, Brazil
Current Conditions -  °F | °C
As of 4:00 PM on Thursday 18 Dec 2014 (Local Time) from SBBU Reporting Station
Clear Clear  
Wind Chill: 93°   Ceiling: Unl
Heat Index: 99°   Visibility: 6mi
Dew Point: 70°   Wind: 7mph
Humidity: 46%   Direction: 230°SW
Pressure: 29.8"   Gusts: NA
Location:  23.39°S, 48.72°W
Report Text: SBBU 181800Z 23006KT CAVOK 34/21 Q1009
Loading
Personal Weather Stations






























Interactive Weather Map New forecast layout! Learn more

10-Day Weather Forecast

Advertisements
Track Severe Weather on mobile